createdAt,value
2018-02-13T00:00:46.486Z,957.30
2018-02-13T00:02:39.885Z,957.32
2018-02-13T00:03:39.857Z,957.30
2018-02-13T00:05:33.262Z,957.31
2018-02-13T00:06:33.261Z,957.29
2018-02-13T00:08:26.655Z,957.28
2018-02-13T00:09:26.634Z,957.29
2018-02-13T00:11:20.020Z,957.32
2018-02-13T00:12:20.023Z,957.33
2018-02-13T00:14:13.414Z,957.25
2018-02-13T00:15:13.393Z,957.26
2018-02-13T00:17:06.769Z,957.29
2018-02-13T00:18:06.763Z,957.25
2018-02-13T00:20:00.159Z,957.27
2018-02-13T00:21:00.138Z,957.29
2018-02-13T00:22:53.512Z,957.25
2018-02-13T00:23:53.513Z,957.23
2018-02-13T00:25:46.905Z,957.24
2018-02-13T00:26:46.887Z,957.25
2018-02-13T00:28:40.263Z,957.24
2018-02-13T00:29:40.260Z,957.26
2018-02-13T00:31:33.652Z,957.22
2018-02-13T00:32:33.641Z,957.25
2018-02-13T00:34:27.005Z,957.19
2018-02-13T00:35:27.003Z,957.17
2018-02-13T00:37:20.409Z,957.15
2018-02-13T00:38:20.387Z,957.14
2018-02-13T00:40:13.762Z,957.16
2018-02-13T00:41:13.762Z,957.12
2018-02-13T00:43:07.154Z,957.11
2018-02-13T00:44:07.132Z,957.08
2018-02-13T00:46:00.506Z,957.14
2018-02-13T00:47:00.508Z,957.10
2018-02-13T00:48:53.908Z,957.11
2018-02-13T00:49:53.889Z,957.06
2018-02-13T00:51:47.298Z,957.06
2018-02-13T00:52:47.270Z,957.06
2018-02-13T00:54:40.644Z,957.05
2018-02-13T00:55:40.643Z,957.07
2018-02-13T00:57:34.036Z,957.07
2018-02-13T00:58:34.028Z,957.05
2018-02-13T01:00:27.390Z,957.08
2018-02-13T01:01:27.387Z,957.04
2018-02-13T01:03:20.787Z,957.04
2018-02-13T01:04:20.761Z,957.05
2018-02-13T01:06:14.133Z,957.04
2018-02-13T01:07:14.134Z,957.02
2018-02-13T01:09:07.527Z,957.06
2018-02-13T01:10:07.506Z,957.06
2018-02-13T01:12:00.879Z,957.05
2018-02-13T01:13:00.878Z,957.03
2018-02-13T01:14:54.269Z,957.01
2018-02-13T01:15:54.251Z,957.01
2018-02-13T01:17:47.625Z,956.99
2018-02-13T01:18:47.673Z,956.99
2018-02-13T01:20:41.022Z,956.96
2018-02-13T01:21:40.998Z,956.99
2018-02-13T01:23:34.371Z,957.00
2018-02-13T01:24:34.366Z,956.96
2018-02-13T01:26:27.769Z,956.97
2018-02-13T01:27:27.745Z,956.94
2018-02-13T01:29:21.134Z,956.95
2018-02-13T01:30:21.117Z,956.93
2018-02-13T01:32:14.489Z,956.94
2018-02-13T01:33:14.490Z,956.95
2018-02-13T01:35:07.918Z,956.92
2018-02-13T01:36:07.858Z,956.93
2018-02-13T01:38:01.265Z,956.90
2018-02-13T01:39:01.265Z,956.88
2018-02-13T01:40:54.660Z,956.90
2018-02-13T01:41:54.635Z,956.89
2018-02-13T01:43:49.009Z,956.90
2018-02-13T01:44:49.009Z,956.91
2018-02-13T01:46:42.416Z,956.87
2018-02-13T01:47:42.390Z,956.90
2018-02-13T01:49:35.768Z,956.88
2018-02-13T01:50:35.781Z,956.91
2018-02-13T01:52:29.160Z,956.89
2018-02-13T01:53:29.133Z,956.90
2018-02-13T01:55:22.517Z,956.89
2018-02-13T01:56:22.513Z,956.89
2018-02-13T01:58:15.903Z,956.88
2018-02-13T01:59:15.880Z,956.89
2018-02-13T02:01:09.256Z,956.86
2018-02-13T02:02:09.253Z,956.88
2018-02-13T02:04:02.648Z,956.84
2018-02-13T02:05:02.627Z,956.86
2018-02-13T02:06:55.997Z,956.83
2018-02-13T02:07:56.002Z,956.82
2018-02-13T02:09:49.387Z,956.82
2018-02-13T02:10:49.368Z,956.84
2018-02-13T02:12:42.741Z,956.88
2018-02-13T02:13:42.737Z,956.84
2018-02-13T02:15:36.127Z,956.80
2018-02-13T02:16:36.108Z,956.87
2018-02-13T02:18:29.541Z,956.88
2018-02-13T02:19:29.479Z,956.79
2018-02-13T02:21:22.852Z,956.83
2018-02-13T02:22:22.850Z,956.82
2018-02-13T02:24:16.321Z,956.83
2018-02-13T02:25:16.264Z,956.83
2018-02-13T02:27:09.636Z,956.82
2018-02-13T02:28:09.635Z,956.83
2018-02-13T02:30:03.028Z,956.80
2018-02-13T02:31:03.008Z,956.79
2018-02-13T02:32:56.383Z,956.80
2018-02-13T02:33:56.374Z,956.77
2018-02-13T02:35:49.766Z,956.71
2018-02-13T02:36:49.745Z,956.74
2018-02-13T02:38:43.128Z,956.72
2018-02-13T02:39:43.128Z,956.70
2018-02-13T02:41:36.529Z,956.74
2018-02-13T02:42:36.506Z,956.68
2018-02-13T02:44:29.882Z,956.69
2018-02-13T02:45:29.878Z,956.73
2018-02-13T02:47:23.293Z,956.68
2018-02-13T02:48:23.273Z,956.67
2018-02-13T02:50:16.647Z,956.66
2018-02-13T02:51:16.649Z,956.66
2018-02-13T02:53:10.042Z,956.61
2018-02-13T02:54:10.015Z,956.62
2018-02-13T02:56:03.397Z,956.57
2018-02-13T02:57:03.395Z,956.54
2018-02-13T02:58:56.787Z,956.53
2018-02-13T02:59:56.764Z,956.48
2018-02-13T03:01:50.135Z,956.47
2018-02-13T03:02:50.141Z,956.50
2018-02-13T03:04:43.525Z,956.48
2018-02-13T03:05:43.504Z,956.48
2018-02-13T03:07:36.878Z,956.45
2018-02-13T03:08:36.881Z,956.43
2018-02-13T03:10:30.287Z,956.45
2018-02-13T03:11:30.262Z,956.47
2018-02-13T03:13:23.696Z,956.46
2018-02-13T03:14:23.635Z,956.46
2018-02-13T03:16:17.006Z,956.47
2018-02-13T03:17:17.005Z,956.47
2018-02-13T03:19:10.397Z,956.49
2018-02-13T03:20:10.374Z,956.46
2018-02-13T03:22:03.745Z,956.45
2018-02-13T03:23:03.745Z,956.44
2018-02-13T03:24:57.139Z,956.40
2018-02-13T03:25:57.113Z,956.38
2018-02-13T03:27:50.484Z,956.43
2018-02-13T03:28:50.482Z,956.39
2018-02-13T03:30:43.875Z,956.42
2018-02-13T03:31:43.853Z,956.40
2018-02-13T03:33:37.230Z,956.37
2018-02-13T03:34:37.224Z,956.34
2018-02-13T03:36:30.615Z,956.34
2018-02-13T03:37:30.593Z,956.34
2018-02-13T03:39:23.966Z,956.34
2018-02-13T03:40:23.964Z,956.30
2018-02-13T03:42:17.354Z,956.32
2018-02-13T03:43:17.332Z,956.37
2018-02-13T03:45:10.706Z,956.30
2018-02-13T03:46:10.704Z,956.28
2018-02-13T03:48:04.096Z,956.28
2018-02-13T03:49:04.074Z,956.28
2018-02-13T03:50:57.445Z,956.30
2018-02-13T03:51:57.443Z,956.29
2018-02-13T03:53:50.836Z,956.35
2018-02-13T03:54:50.815Z,956.34
2018-02-13T03:56:44.186Z,956.35
2018-02-13T03:57:44.186Z,956.35
2018-02-13T03:59:37.574Z,956.32
2018-02-13T04:00:37.552Z,956.33
2018-02-13T04:02:30.935Z,956.30
2018-02-13T04:03:30.932Z,956.29
2018-02-13T04:05:24.324Z,956.30
2018-02-13T04:06:24.300Z,956.28
2018-02-13T04:08:17.741Z,956.29
2018-02-13T04:09:17.672Z,956.32
2018-02-13T04:11:11.044Z,956.31
2018-02-13T04:12:11.042Z,956.32
2018-02-13T04:14:04.442Z,956.29
2018-02-13T04:15:04.417Z,956.27
2018-02-13T04:16:57.786Z,956.25
2018-02-13T04:17:57.787Z,956.28
2018-02-13T04:19:51.171Z,956.25
2018-02-13T04:20:51.150Z,956.23
2018-02-13T04:22:44.524Z,956.24
2018-02-13T04:23:44.522Z,956.32
2018-02-13T04:25:37.923Z,956.28
2018-02-13T04:26:37.892Z,956.28
2018-02-13T04:28:31.267Z,956.25
2018-02-13T04:29:31.263Z,956.23
2018-02-13T04:31:24.656Z,956.25
2018-02-13T04:32:24.634Z,956.22
2018-02-13T04:34:18.013Z,956.23
2018-02-13T04:35:18.001Z,956.24
2018-02-13T04:37:11.394Z,956.25
2018-02-13T04:38:11.368Z,956.27
2018-02-13T04:40:04.743Z,956.25
2018-02-13T04:41:04.738Z,956.26
2018-02-13T04:42:58.133Z,956.27
2018-02-13T04:43:58.116Z,956.30
2018-02-13T04:45:51.479Z,956.26
2018-02-13T04:46:51.477Z,956.27
2018-02-13T04:48:44.867Z,956.27
2018-02-13T04:49:44.860Z,956.26
2018-02-13T04:51:38.283Z,956.25
2018-02-13T04:52:38.215Z,956.22
2018-02-13T04:54:31.584Z,956.23
2018-02-13T04:55:31.582Z,956.20
2018-02-13T04:57:24.975Z,956.16
2018-02-13T04:58:24.954Z,956.17
2018-02-13T05:00:18.327Z,956.15
2018-02-13T05:01:18.322Z,956.13
2018-02-13T05:03:11.713Z,956.17
2018-02-13T05:04:11.689Z,956.10
2018-02-13T05:06:05.062Z,956.13
2018-02-13T05:07:05.059Z,956.12
2018-02-13T05:08:58.448Z,956.13
2018-02-13T05:09:58.430Z,956.12
2018-02-13T05:11:51.802Z,956.10
2018-02-13T05:12:51.801Z,956.11
2018-02-13T05:14:45.191Z,956.12
2018-02-13T05:15:45.170Z,956.10
2018-02-13T05:17:38.540Z,956.09
2018-02-13T05:18:38.538Z,956.11
2018-02-13T05:20:31.931Z,956.11
2018-02-13T05:21:31.910Z,956.14
2018-02-13T05:23:25.283Z,956.14
2018-02-13T05:24:25.280Z,956.14
2018-02-13T05:26:18.681Z,956.09
2018-02-13T05:27:18.669Z,956.14
2018-02-13T05:29:12.030Z,956.11
2018-02-13T05:30:12.028Z,956.13
2018-02-13T05:32:05.423Z,956.14
2018-02-13T05:33:05.400Z,956.14
2018-02-13T05:34:58.805Z,956.16
2018-02-13T05:35:58.784Z,956.15
2018-02-13T05:37:52.148Z,956.08
2018-02-13T05:38:52.151Z,956.08
2018-02-13T05:40:45.576Z,956.07
2018-02-13T05:41:45.512Z,956.09
2018-02-13T05:43:38.888Z,956.06
2018-02-13T05:44:38.883Z,956.06
2018-02-13T05:46:32.284Z,956.05
2018-02-13T05:47:32.269Z,956.05
2018-02-13T05:49:25.638Z,956.07
2018-02-13T05:50:25.633Z,956.06
2018-02-13T05:52:19.026Z,956.05
2018-02-13T05:53:19.042Z,956.04
2018-02-13T05:55:12.487Z,956.05
2018-02-13T05:56:12.454Z,956.06
2018-02-13T05:58:05.849Z,956.05
2018-02-13T05:59:05.808Z,956.03
2018-02-13T06:01:00.202Z,956.05
2018-02-13T06:02:00.158Z,956.04
2018-02-13T06:03:53.560Z,956.04
2018-02-13T06:04:53.534Z,956.03
2018-02-13T06:06:46.996Z,956.04
2018-02-13T06:07:47.005Z,956.06
2018-02-13T06:09:40.345Z,956.06
2018-02-13T06:10:40.335Z,956.07
2018-02-13T06:12:33.742Z,956.06
2018-02-13T06:13:33.750Z,956.08
2018-02-13T06:15:27.103Z,956.07
2018-02-13T06:16:27.085Z,956.07
2018-02-13T06:18:20.538Z,956.05
2018-02-13T06:19:20.502Z,956.05
2018-02-13T06:21:13.847Z,956.03
2018-02-13T06:22:13.819Z,956.04
2018-02-13T06:24:07.227Z,956.08
2018-02-13T06:25:07.242Z,956.06
2018-02-13T06:27:00.594Z,956.08
2018-02-13T06:28:00.580Z,956.09
2018-02-13T06:29:53.962Z,956.11
2018-02-13T06:30:53.920Z,956.12
2018-02-13T06:32:47.332Z,956.10
2018-02-13T06:33:47.323Z,956.14
2018-02-13T06:35:41.746Z,956.11
2018-02-13T06:36:41.675Z,956.14
2018-02-13T06:38:35.085Z,956.16
2018-02-13T06:39:35.075Z,956.13
2018-02-13T06:41:28.434Z,956.11
2018-02-13T06:42:28.546Z,956.16
2018-02-13T06:44:21.839Z,956.13
2018-02-13T06:45:21.823Z,956.15
2018-02-13T06:47:15.261Z,956.16
2018-02-13T06:48:15.218Z,956.15
2018-02-13T06:50:08.640Z,956.18
2018-02-13T06:51:08.588Z,956.20
2018-02-13T06:53:01.965Z,956.17
2018-02-13T06:54:01.906Z,956.19
2018-02-13T06:55:55.448Z,956.20
2018-02-13T06:56:55.407Z,956.21
2018-02-13T06:58:49.731Z,956.18
2018-02-13T06:59:49.697Z,956.18
2018-02-13T07:01:43.187Z,956.20
2018-02-13T07:02:43.104Z,956.20
2018-02-13T07:04:36.479Z,956.19
2018-02-13T07:05:36.471Z,956.17
2018-02-13T07:07:29.850Z,956.21
2018-02-13T07:08:29.850Z,956.13
2018-02-13T07:10:23.226Z,956.19
2018-02-13T07:11:23.222Z,956.18
2018-02-13T07:13:16.556Z,956.17
2018-02-13T07:14:16.536Z,956.19
2018-02-13T07:16:09.941Z,956.12
2018-02-13T07:17:09.940Z,956.15
2018-02-13T07:19:03.323Z,956.13
2018-02-13T07:20:03.277Z,956.08
2018-02-13T07:21:56.684Z,956.11
2018-02-13T07:22:56.687Z,956.10
2018-02-13T07:24:50.089Z,956.10
2018-02-13T07:25:50.061Z,956.12
2018-02-13T07:27:43.528Z,956.15
2018-02-13T07:28:43.427Z,956.15
2018-02-13T07:30:36.834Z,956.10
2018-02-13T07:31:36.845Z,956.14
2018-02-13T07:33:30.187Z,956.08
2018-02-13T07:34:30.139Z,956.07
2018-02-13T07:36:23.546Z,956.07
2018-02-13T07:37:23.552Z,956.08
2018-02-13T07:39:16.950Z,956.02
2018-02-13T07:40:16.944Z,956.05
2018-02-13T07:42:10.295Z,956.00
2018-02-13T07:43:10.306Z,956.04
2018-02-13T07:45:03.700Z,955.99
2018-02-13T07:46:03.680Z,955.99
2018-02-13T07:47:57.050Z,955.98
2018-02-13T07:48:57.062Z,955.96
2018-02-13T07:50:50.489Z,955.95
2018-02-13T07:51:50.408Z,955.91
2018-02-13T07:53:43.803Z,955.89
2018-02-13T07:54:43.760Z,955.86
2018-02-13T07:56:37.195Z,955.87
2018-02-13T07:57:37.195Z,955.85
2018-02-13T07:59:30.531Z,955.84
2018-02-13T08:00:30.560Z,955.85
2018-02-13T08:02:24.005Z,955.83
2018-02-13T08:03:23.923Z,955.81
2018-02-13T08:05:17.318Z,955.74
2018-02-13T08:06:17.309Z,955.77
2018-02-13T08:08:10.693Z,955.77
2018-02-13T08:09:10.671Z,955.79
2018-02-13T08:11:04.068Z,955.77
2018-02-13T08:12:04.061Z,955.76
2018-02-13T08:13:57.418Z,955.75
2018-02-13T08:14:57.423Z,955.73
2018-02-13T08:16:50.856Z,955.76
2018-02-13T08:17:50.789Z,955.73
2018-02-13T08:19:44.147Z,955.72
2018-02-13T08:20:44.205Z,955.72
2018-02-13T08:22:38.626Z,955.72
2018-02-13T08:23:38.554Z,955.70
2018-02-13T08:25:31.959Z,955.71
2018-02-13T08:26:31.913Z,955.71
2018-02-13T08:28:25.296Z,955.69
2018-02-13T08:29:25.312Z,955.68
2018-02-13T08:31:18.679Z,955.70
2018-02-13T08:32:18.666Z,955.68
2018-02-13T08:34:12.114Z,955.61
2018-02-13T08:35:12.085Z,955.62
2018-02-13T08:37:05.439Z,955.64
2018-02-13T08:38:05.434Z,955.59
2018-02-13T08:39:58.856Z,955.59
2018-02-13T08:40:58.831Z,955.60
2018-02-13T08:42:52.188Z,955.56
2018-02-13T08:43:52.221Z,955.47
2018-02-13T08:45:45.605Z,955.50
2018-02-13T08:46:45.573Z,955.49
2018-02-13T08:48:38.921Z,955.46
2018-02-13T08:49:38.952Z,955.44
2018-02-13T08:51:32.347Z,955.44
2018-02-13T08:52:32.340Z,955.39
2018-02-13T08:54:25.718Z,955.38
2018-02-13T08:55:25.720Z,955.36
2018-02-13T08:57:19.140Z,955.36
2018-02-13T08:58:19.125Z,955.38
2018-02-13T09:00:12.484Z,955.34
2018-02-13T09:01:12.493Z,955.33
2018-02-13T09:03:05.886Z,955.36
2018-02-13T09:04:05.871Z,955.33
2018-02-13T09:05:59.353Z,955.30
2018-02-13T09:06:59.295Z,955.29
2018-02-13T09:08:52.694Z,955.32
2018-02-13T09:09:52.666Z,955.26
2018-02-13T09:11:46.087Z,955.30
2018-02-13T09:12:46.069Z,955.28
2018-02-13T09:14:39.483Z,955.27
2018-02-13T09:15:39.456Z,955.28
2018-02-13T09:17:32.846Z,955.24
2018-02-13T09:18:32.810Z,955.24
2018-02-13T09:20:26.225Z,955.21
2018-02-13T09:21:26.172Z,955.15
2018-02-13T09:23:19.586Z,955.15
2018-02-13T09:24:19.559Z,955.14
2018-02-13T09:26:12.948Z,955.14
2018-02-13T09:27:12.954Z,955.15
2018-02-13T09:29:06.376Z,955.14
2018-02-13T09:30:06.318Z,955.14
2018-02-13T09:31:59.684Z,955.10
2018-02-13T09:32:59.708Z,955.09
2018-02-13T09:34:53.095Z,955.09
2018-02-13T09:35:53.083Z,955.10
2018-02-13T09:37:46.443Z,955.06
2018-02-13T09:38:46.479Z,955.04
2018-02-13T09:40:39.874Z,955.06
2018-02-13T09:41:39.845Z,955.08
2018-02-13T09:43:33.369Z,955.03
2018-02-13T09:44:33.298Z,955.08
2018-02-13T09:46:26.709Z,955.08
2018-02-13T09:47:26.673Z,955.01
2018-02-13T09:49:20.106Z,954.97
2018-02-13T09:50:20.094Z,954.98
2018-02-13T09:52:14.461Z,954.94
2018-02-13T09:53:14.512Z,954.95
2018-02-13T09:55:07.886Z,954.90
2018-02-13T09:56:07.855Z,954.90
2018-02-13T09:58:01.237Z,954.90
2018-02-13T09:59:01.259Z,954.88
2018-02-13T10:00:55.638Z,954.81
2018-02-13T10:01:55.621Z,954.84
2018-02-13T10:03:49.016Z,954.79
2018-02-13T10:04:48.996Z,954.76
2018-02-13T10:06:42.373Z,954.75
2018-02-13T10:07:42.368Z,954.78
2018-02-13T10:09:35.788Z,954.76
2018-02-13T10:10:35.767Z,954.76
2018-02-13T10:12:29.204Z,954.76
2018-02-13T10:13:29.175Z,954.71
2018-02-13T10:15:22.705Z,954.70
2018-02-13T10:16:22.506Z,954.69
2018-02-13T10:18:16.940Z,954.83
2018-02-13T10:19:16.890Z,954.92
2018-02-13T10:21:10.281Z,955.01
2018-02-13T10:22:10.263Z,955.02
2018-02-13T10:24:03.682Z,955.00
2018-02-13T10:25:03.655Z,955.04
2018-02-13T10:26:57.092Z,955.01
2018-02-13T10:27:57.080Z,954.98
2018-02-13T10:29:50.485Z,955.01
2018-02-13T10:30:50.482Z,955.06
2018-02-13T10:32:43.833Z,955.04
2018-02-13T10:33:43.856Z,954.99
2018-02-13T10:35:38.200Z,954.99
2018-02-13T10:36:38.237Z,954.96
2018-02-13T10:38:31.619Z,954.93
2018-02-13T10:39:31.629Z,954.91
2018-02-13T10:41:25.018Z,954.58
2018-02-13T10:42:25.006Z,954.77
2018-02-13T10:44:18.424Z,954.85
2018-02-13T10:45:18.427Z,954.88
2018-02-13T10:47:11.811Z,954.86
2018-02-13T10:48:11.865Z,954.96
2018-02-13T10:50:05.256Z,954.97
2018-02-13T10:51:05.268Z,954.91
2018-02-13T10:52:58.621Z,954.85
2018-02-13T10:53:58.653Z,954.82
2018-02-13T10:55:52.058Z,954.82
2018-02-13T10:56:52.044Z,954.87
2018-02-13T10:58:45.536Z,954.98
2018-02-13T10:59:45.452Z,954.87
2018-02-13T11:01:38.848Z,954.74
2018-02-13T11:02:38.895Z,954.76
2018-02-13T11:04:32.265Z,954.75
2018-02-13T11:05:32.273Z,954.74
2018-02-13T11:07:25.690Z,954.79
2018-02-13T11:08:25.678Z,954.88
2018-02-13T11:10:19.089Z,954.84
2018-02-13T11:11:19.063Z,954.89
2018-02-13T11:13:12.464Z,954.26
2018-02-13T11:14:12.471Z,954.20
2018-02-13T11:16:05.957Z,954.07
2018-02-13T11:17:05.932Z,954.07
2018-02-13T11:18:59.348Z,954.89
2018-02-13T11:19:59.312Z,954.99
2018-02-13T11:21:52.754Z,954.46
2018-02-13T11:22:52.743Z,954.28
2018-02-13T11:24:46.161Z,954.74
2018-02-13T11:25:46.149Z,954.72
2018-02-13T11:27:39.558Z,954.63
2018-02-13T11:28:39.531Z,953.94
2018-02-13T11:30:32.996Z,954.45
2018-02-13T11:31:32.964Z,954.50
2018-02-13T11:33:26.328Z,954.56
2018-02-13T11:34:26.354Z,954.54
2018-02-13T11:36:19.767Z,954.54
2018-02-13T11:37:19.727Z,954.15
2018-02-13T11:39:13.169Z,954.54
2018-02-13T11:40:13.164Z,954.59
2018-02-13T11:42:07.578Z,954.83
2018-02-13T11:43:07.540Z,954.93
2018-02-13T11:45:00.942Z,955.02
2018-02-13T11:46:00.972Z,954.52
2018-02-13T11:47:54.382Z,954.51
2018-02-13T11:48:54.365Z,954.51
2018-02-13T11:50:47.765Z,954.47
2018-02-13T11:51:47.785Z,954.34
2018-02-13T11:53:41.200Z,953.88
2018-02-13T11:54:41.203Z,953.74
2018-02-13T11:56:34.586Z,953.57
2018-02-13T11:57:34.627Z,953.55
2018-02-13T11:59:28.041Z,953.67
2018-02-13T12:00:28.013Z,953.68
2018-02-13T12:02:21.432Z,953.64
2018-02-13T12:03:21.441Z,953.66
2018-02-13T12:05:14.846Z,953.85
2018-02-13T12:06:14.818Z,953.79
2018-02-13T12:08:08.246Z,954.44
2018-02-13T12:09:08.264Z,954.26
2018-02-13T12:11:01.624Z,954.00
2018-02-13T12:12:01.612Z,954.20
2018-02-13T12:13:55.016Z,954.09
2018-02-13T12:14:55.020Z,954.12
2018-02-13T12:16:48.421Z,953.93
2018-02-13T12:17:48.418Z,954.00
2018-02-13T12:19:41.824Z,953.31
2018-02-13T12:20:41.812Z,953.16
2018-02-13T12:22:35.227Z,953.38
2018-02-13T12:23:35.212Z,953.74
2018-02-13T12:25:28.616Z,953.50
2018-02-13T12:26:28.603Z,953.71
2018-02-13T12:28:21.994Z,953.99
2018-02-13T12:29:21.999Z,953.81
2018-02-13T12:31:15.419Z,953.31
2018-02-13T12:32:15.406Z,953.48
2018-02-13T12:34:08.796Z,953.44
2018-02-13T12:35:08.804Z,953.27
2018-02-13T12:37:02.212Z,953.39
2018-02-13T12:38:02.200Z,953.38
2018-02-13T12:39:55.597Z,953.06
2018-02-13T12:40:55.600Z,953.14
2018-02-13T12:42:49.023Z,953.16
2018-02-13T12:43:49.009Z,953.13
2018-02-13T12:45:42.404Z,952.97
2018-02-13T12:46:42.409Z,952.95
2018-02-13T12:48:35.835Z,952.80
2018-02-13T12:49:35.810Z,952.71
2018-02-13T12:51:29.280Z,952.84
2018-02-13T12:52:29.305Z,952.80
2018-02-13T12:54:22.721Z,952.69
2018-02-13T12:55:22.683Z,952.70
2018-02-13T12:57:16.082Z,952.63
2018-02-13T12:58:16.122Z,952.64
2018-02-13T13:00:09.504Z,952.51
2018-02-13T13:01:09.492Z,952.51
2018-02-13T13:03:02.894Z,952.56
2018-02-13T13:04:02.902Z,952.62
2018-02-13T13:05:56.312Z,952.59
2018-02-13T13:06:56.296Z,952.44
2018-02-13T13:08:49.691Z,952.40
2018-02-13T13:09:49.692Z,952.41
2018-02-13T13:11:43.107Z,952.29
2018-02-13T13:12:43.103Z,952.31
2018-02-13T13:14:36.485Z,952.28
2018-02-13T13:15:36.492Z,952.27
2018-02-13T13:17:29.901Z,952.30
2018-02-13T13:18:29.887Z,952.30
2018-02-13T13:20:23.298Z,952.37
2018-02-13T13:21:23.324Z,952.30
2018-02-13T13:23:16.718Z,952.42
2018-02-13T13:24:16.708Z,952.33
2018-02-13T13:26:10.158Z,952.33
2018-02-13T13:27:10.102Z,952.34
2018-02-13T13:29:03.498Z,952.22
2018-02-13T13:30:03.518Z,952.24
2018-02-13T13:31:56.914Z,952.30
2018-02-13T13:32:56.913Z,952.30
2018-02-13T13:34:50.295Z,952.30
2018-02-13T13:35:50.303Z,952.17
2018-02-13T13:37:43.705Z,952.09
2018-02-13T13:38:43.695Z,952.10
2018-02-13T13:40:37.102Z,951.99
2018-02-13T13:41:37.092Z,952.00
2018-02-13T13:43:30.505Z,951.94
2018-02-13T13:44:30.496Z,951.94
2018-02-13T13:46:23.898Z,951.88
2018-02-13T13:47:23.891Z,951.92
2018-02-13T13:49:17.318Z,951.89
2018-02-13T13:50:17.301Z,951.86
2018-02-13T13:52:10.684Z,951.72
2018-02-13T13:53:10.696Z,951.71
2018-02-13T13:55:04.105Z,951.73
2018-02-13T13:56:04.093Z,951.70
2018-02-13T13:57:57.481Z,951.71
2018-02-13T13:58:57.486Z,951.67
2018-02-13T14:00:50.903Z,951.65
2018-02-13T14:01:50.918Z,951.72
2018-02-13T14:03:44.286Z,951.67
2018-02-13T14:04:44.290Z,951.77
2018-02-13T14:06:37.696Z,951.64
2018-02-13T14:07:37.681Z,951.54
2018-02-13T14:09:31.074Z,951.46
2018-02-13T14:10:31.082Z,951.43
2018-02-13T14:12:24.488Z,951.40
2018-02-13T14:13:24.477Z,951.37
2018-02-13T14:15:17.917Z,951.31
2018-02-13T14:16:17.871Z,951.24
2018-02-13T14:18:11.279Z,951.19
2018-02-13T14:19:11.281Z,951.21
2018-02-13T14:21:04.725Z,951.21
2018-02-13T14:22:04.672Z,951.21
2018-02-13T14:23:58.055Z,951.17
2018-02-13T14:24:58.057Z,951.16
2018-02-13T14:26:51.475Z,951.13
2018-02-13T14:27:51.447Z,951.10
2018-02-13T14:29:44.841Z,951.10
2018-02-13T14:30:44.845Z,951.10
2018-02-13T14:32:38.246Z,951.04
2018-02-13T14:33:38.291Z,951.08
2018-02-13T14:35:31.625Z,951.07
2018-02-13T14:36:31.635Z,951.06
2018-02-13T14:38:25.038Z,951.15
2018-02-13T14:39:25.029Z,951.14
2018-02-13T14:41:18.410Z,951.19
2018-02-13T14:42:18.414Z,951.17
2018-02-13T14:44:11.819Z,950.99
2018-02-13T14:45:11.816Z,950.95
2018-02-13T14:47:05.217Z,951.03
2018-02-13T14:48:05.208Z,950.99
2018-02-13T14:49:58.587Z,950.84
2018-02-13T14:50:58.600Z,950.87
2018-02-13T14:52:52.004Z,950.82
2018-02-13T14:53:51.995Z,950.81
2018-02-13T14:55:45.364Z,950.82
2018-02-13T14:56:45.381Z,950.86
2018-02-13T14:58:38.814Z,950.89
2018-02-13T14:59:38.819Z,950.84
2018-02-13T15:01:32.204Z,950.84
2018-02-13T15:02:32.207Z,950.78
2018-02-13T15:04:25.582Z,950.80
2018-02-13T15:05:25.587Z,950.82
2018-02-13T15:07:19.011Z,950.80
2018-02-13T15:08:18.993Z,950.82
2018-02-13T15:10:12.400Z,950.75
2018-02-13T15:11:12.390Z,950.76
2018-02-13T15:13:06.769Z,950.74
2018-02-13T15:14:06.770Z,950.73
2018-02-13T15:16:00.162Z,950.72
2018-02-13T15:17:00.158Z,950.73
2018-02-13T15:18:53.563Z,950.70
2018-02-13T15:19:53.521Z,950.74
2018-02-13T15:21:47.960Z,950.66
2018-02-13T15:22:47.933Z,950.66
2018-02-13T15:24:42.287Z,950.65
2018-02-13T15:25:42.323Z,950.66
2018-02-13T15:27:35.734Z,950.67
2018-02-13T15:28:35.683Z,950.66
2018-02-13T15:30:29.086Z,950.64
2018-02-13T15:31:29.074Z,950.68
2018-02-13T15:33:22.504Z,950.70
2018-02-13T15:34:22.484Z,950.71
2018-02-13T15:36:15.908Z,950.76
2018-02-13T15:37:15.908Z,950.74
2018-02-13T15:39:10.310Z,950.65
2018-02-13T15:40:10.320Z,950.67
2018-02-13T15:42:04.674Z,950.63
2018-02-13T15:43:04.668Z,950.63
2018-02-13T15:44:58.077Z,950.67
2018-02-13T15:45:58.080Z,950.64
2018-02-13T15:47:51.440Z,950.64
2018-02-13T15:48:51.471Z,950.62
2018-02-13T15:50:44.870Z,950.62
2018-02-13T15:51:44.829Z,950.62
2018-02-13T15:53:38.320Z,950.58
2018-02-13T15:54:38.269Z,950.57
2018-02-13T15:56:32.694Z,950.58
2018-02-13T15:57:32.656Z,950.59
2018-02-13T15:59:26.084Z,950.58
2018-02-13T16:00:26.070Z,950.53
2018-02-13T16:02:19.433Z,950.51
2018-02-13T16:03:19.433Z,950.59
2018-02-13T16:05:12.853Z,950.52
2018-02-13T16:06:12.826Z,950.55
2018-02-13T16:08:07.207Z,950.54
2018-02-13T16:09:07.229Z,950.57
2018-02-13T16:11:00.630Z,950.56
2018-02-13T16:12:00.611Z,950.54
2018-02-13T16:13:54.005Z,950.52
2018-02-13T16:14:53.988Z,950.50
2018-02-13T16:16:47.422Z,950.49
2018-02-13T16:17:47.386Z,950.44
2018-02-13T16:19:40.754Z,950.45
2018-02-13T16:20:40.783Z,950.43
2018-02-13T16:22:34.179Z,950.44
2018-02-13T16:23:34.189Z,950.45
2018-02-13T16:25:27.580Z,950.46
2018-02-13T16:26:27.562Z,950.46
2018-02-13T16:28:20.954Z,950.46
2018-02-13T16:29:20.958Z,950.41
2018-02-13T16:31:14.416Z,950.44
2018-02-13T16:32:14.363Z,950.40
2018-02-13T16:34:08.753Z,950.33
2018-02-13T16:35:08.727Z,950.38
2018-02-13T16:37:02.106Z,950.35
2018-02-13T16:38:02.137Z,950.34
2018-02-13T16:39:55.534Z,950.34
2018-02-13T16:40:55.497Z,950.33
2018-02-13T16:42:49.912Z,950.28
2018-02-13T16:43:49.897Z,950.27
2018-02-13T16:45:43.309Z,950.28
2018-02-13T16:46:43.291Z,950.26
2018-02-13T16:48:37.706Z,950.26
2018-02-13T16:49:37.688Z,950.28
2018-02-13T16:51:31.056Z,950.28
2018-02-13T16:52:31.063Z,950.30
2018-02-13T16:54:25.463Z,950.32
2018-02-13T16:55:25.414Z,950.30
2018-02-13T16:57:18.806Z,950.32
2018-02-13T16:58:18.833Z,950.33
2018-02-13T17:00:13.209Z,950.32
2018-02-13T17:01:13.215Z,950.33
2018-02-13T17:03:06.568Z,950.32
2018-02-13T17:04:06.588Z,950.31
2018-02-13T17:05:59.972Z,950.29
2018-02-13T17:06:59.969Z,950.29
2018-02-13T17:08:53.355Z,950.28
2018-02-13T17:09:53.334Z,950.30
2018-02-13T17:11:46.730Z,950.33
2018-02-13T17:12:46.719Z,950.30
2018-02-13T17:14:40.119Z,950.29
2018-02-13T17:15:40.104Z,950.28
2018-02-13T17:17:34.472Z,950.28
2018-02-13T17:18:34.474Z,950.30
2018-02-13T17:20:27.908Z,950.25
2018-02-13T17:21:27.891Z,950.24
2018-02-13T17:23:21.308Z,950.22
2018-02-13T17:24:21.310Z,950.26
2018-02-13T17:26:15.707Z,950.28
2018-02-13T17:27:15.669Z,950.29
2018-02-13T17:29:09.049Z,950.26
2018-02-13T17:30:09.066Z,950.25
2018-02-13T17:32:02.437Z,950.30
2018-02-13T17:33:02.434Z,950.27
2018-02-13T17:34:55.812Z,950.27
2018-02-13T17:35:55.801Z,950.29
2018-02-13T17:37:50.213Z,950.32
2018-02-13T17:38:50.187Z,950.29
2018-02-13T17:40:43.596Z,950.32
2018-02-13T17:41:43.582Z,950.29
2018-02-13T17:43:37.000Z,950.31
2018-02-13T17:44:36.943Z,950.32
2018-02-13T17:46:30.324Z,950.29
2018-02-13T17:47:30.362Z,950.30
2018-02-13T17:49:23.741Z,950.33
2018-02-13T17:50:23.716Z,950.32
2018-02-13T17:52:17.113Z,950.37
2018-02-13T17:53:17.112Z,950.35
2018-02-13T17:55:10.475Z,950.39
2018-02-13T17:56:10.471Z,950.43
2018-02-13T17:58:03.908Z,950.42
2018-02-13T17:59:03.850Z,950.45
2018-02-13T18:00:57.263Z,950.46
2018-02-13T18:01:57.273Z,950.44